Time;durP1;ratioP1;P1;durP2;ratioP2;P2;SDS_P1;SDS_P2;PMS_P1;PMS_P2;Temp;Humidity;BMP_temperature;BMP_pressure;BME280_temperature;BME280_humidity;BME280_pressure;Samples;Min_cycle;Max_cycle;Signal;HPM_P1;HPM_P2
2022/10/28 00:01:04;;;;;;;12.98;8.88;;;;;;;11.52;83.74;100907.14;1728374;81;21139;-73
2022/10/28 00:03:32;;;;;;;10.10;7.70;;;;;;;11.49;83.80;100907.45;1733606;81;21076;-75
2022/10/28 00:06:04;;;;;;;11.35;8.30;;;;;;;11.52;83.68;100904.98;1716960;81;21095;-76
2022/10/28 00:08:32;;;;;;;10.13;8.55;;;;;;;11.57;83.57;100908.89;1734560;81;21610;-75
2022/10/28 00:11:18;;;;;;;10.25;9.08;;;;;;;11.55;83.64;100908.66;1730679;81;21500;-77
2022/10/28 00:13:45;;;;;;;12.28;9.45;;;;;;;11.46;83.82;100906.41;1718212;81;21149;-76
2022/10/28 00:16:14;;;;;;;10.88;8.38;;;;;;;11.37;84.09;100908.59;1727571;81;21073;-76
2022/10/28 00:18:43;;;;;;;9.13;8.15;;;;;;;11.33;84.24;100911.20;1724035;81;21576;-76
2022/10/28 00:21:13;;;;;;;9.58;8.45;;;;;;;11.38;84.24;100912.45;1731716;82;21146;-76
2022/10/28 00:23:40;;;;;;;11.97;8.48;;;;;;;11.39;84.40;100914.61;1733005;81;21101;-77
2022/10/28 00:26:10;;;;;;;10.72;9.05;;;;;;;11.40;84.42;100917.63;1733784;81;21234;-78
2022/10/28 00:28:42;;;;;;;14.78;8.60;;;;;;;11.38;84.44;100911.61;1732839;82;21056;-78
2022/10/28 00:31:12;;;;;;;12.25;8.35;;;;;;;11.36;84.36;100918.91;1717481;82;21078;-76
2022/10/28 00:33:39;;;;;;;12.10;9.10;;;;;;;11.45;84.36;100925.16;1710597;81;22668;-76
2022/10/28 00:36:22;;;;;;;12.28;9.45;;;;;;;11.49;84.32;100918.56;1732783;81;21116;-78
2022/10/28 00:38:51;;;;;;;10.85;9.15;;;;;;;11.49;84.14;100915.91;1726567;82;21567;-79
2022/10/28 00:41:32;;;;;;;11.12;8.10;;;;;;;11.41;83.99;100917.96;1724061;81;21156;-78
2022/10/28 00:44:02;;;;;;;11.00;8.20;;;;;;;11.35;83.93;100919.88;1734903;81;21886;-77
2022/10/28 00:46:42;;;;;;;14.23;9.58;;;;;;;11.38;83.86;100920.92;1733320;81;21066;-78
2022/10/28 00:49:19;;;;;;;10.35;8.90;;;;;;;11.31;84.00;100921.98;1725541;81;21082;-77
2022/10/28 00:51:52;;;;;;;11.43;9.43;;;;;;;11.27;84.28;100923.25;1722930;81;21148;-78
2022/10/28 00:54:18;;;;;;;13.13;9.55;;;;;;;11.23;84.41;100921.03;1726888;81;21110;-78
2022/10/28 00:56:49;;;;;;;13.53;9.18;;;;;;;11.19;84.41;100922.64;1729061;82;21534;-79
2022/10/28 00:59:23;;;;;;;11.40;9.15;;;;;;;11.25;84.18;100921.23;1728570;81;21098;-80
2022/10/28 01:01:50;;;;;;;14.78;9.55;;;;;;;11.27;84.13;100927.25;1727429;81;21536;-78
2022/10/28 01:04:17;;;;;;;12.33;10.35;;;;;;;11.18;84.33;100922.31;1713616;83;21053;-79
2022/10/28 01:06:44;;;;;;;11.83;9.98;;;;;;;11.13;84.50;100923.72;1711273;83;21041;-79
2022/10/28 01:09:12;;;;;;;13.25;9.08;;;;;;;11.08;84.71;100918.81;1739862;81;21079;-77
2022/10/28 01:12:23;;;;;;;10.53;9.43;;;;;;;11.07;84.71;100922.47;1726544;81;21068;-79
2022/10/28 01:15:11;;;;;;;13.85;10.03;;;;;;;11.13;84.62;100921.89;1751778;81;21060;-79
2022/10/28 01:18:23;;;;;;;13.18;9.95;;;;;;;11.08;84.74;100924.13;1727559;82;21152;-81
2022/10/28 01:21:18;;;;;;;11.60;10.40;;;;;;;11.00;84.93;100923.51;1735639;82;21092;-81
2022/10/28 01:24:10;;;;;;;11.10;9.38;;;;;;;10.94;85.24;100925.91;1735901;81;21052;-78
2022/10/28 01:26:54;;;;;;;11.65;9.70;;;;;;;11.01;85.26;100926.53;1735901;81;21064;-78
2022/10/28 01:30:05;;;;;;;15.72;10.03;;;;;;;11.09;84.99;100924.48;1724724;81;21074;-77
2022/10/28 01:32:41;;;;;;;11.53;10.10;;;;;;;11.06;85.13;100922.60;1719288;82;21237;-75
2022/10/28 01:35:30;;;;;;;12.60;9.70;;;;;;;10.97;85.25;100922.95;1694811;83;20984;-76
2022/10/28 01:38:26;;;;;;;11.33;9.25;;;;;;;10.91;85.32;100916.88;1733661;81;21039;-76
2022/10/28 01:41:13;;;;;;;12.33;9.80;;;;;;;10.96;85.38;100920.78;1745356;80;21072;-77
2022/10/28 01:44:06;;;;;;;13.28;10.40;;;;;;;10.99;85.36;100924.50;1750397;81;21108;-79
2022/10/28 01:47:15;;;;;;;14.15;10.13;;;;;;;10.92;85.51;100922.05;1737493;80;21358;-77
2022/10/28 01:50:03;;;;;;;12.28;8.93;;;;;;;10.84;85.74;100925.08;1728111;82;21580;-79
2022/10/28 01:52:30;;;;;;;13.22;9.55;;;;;;;10.87;85.81;100921.63;1742805;81;21034;-78
2022/10/28 01:55:18;;;;;;;11.90;9.38;;;;;;;10.92;85.79;100929.20;1736315;81;21059;-79
2022/10/28 01:57:45;;;;;;;11.60;9.70;;;;;;;10.86;85.94;100931.93;1723597;81;21103;-75
2022/10/28 02:00:13;;;;;;;10.80;8.70;;;;;;;10.84;86.02;100930.41;1717763;82;21158;-77
2022/10/28 02:02:40;;;;;;;13.90;9.20;;;;;;;10.85;86.01;100926.75;1741988;81;21060;-77
2022/10/28 02:05:45;;;;;;;13.15;9.35;;;;;;;10.93;85.84;100930.39;1743452;81;21064;-76
2022/10/28 02:08:20;;;;;;;10.90;9.13;;;;;;;10.93;85.83;100926.88;1739959;81;21040;-76
2022/10/28 02:11:12;;;;;;;14.13;9.80;;;;;;;10.85;86.14;100931.56;1762730;81;21531;-79
2022/10/28 02:14:08;;;;;;;11.55;8.80;;;;;;;10.79;86.24;100931.64;1758483;81;21138;-76
2022/10/28 02:16:44;;;;;;;12.30;9.50;;;;;;;10.81;86.23;100922.20;1758507;81;21050;-78
2022/10/28 02:19:43;;;;;;;10.38;9.15;;;;;;;10.86;86.09;100918.64;1701499;83;21116;-75
2022/10/28 02:22:23;;;;;;;15.85;10.55;;;;;;;10.82;86.20;100916.75;1736150;81;21064;-77
2022/10/28 02:25:05;;;;;;;14.03;10.32;;;;;;;10.74;86.30;100915.29;1741296;81;21025;-77
2022/10/28 02:27:49;;;;;;;11.03;9.28;;;;;;;10.71;86.51;100914.73;1735857;82;21056;-76
2022/10/28 02:30:48;;;;;;;13.38;9.78;;;;;;;10.77;86.40;100917.64;1735308;82;21536;-78
2022/10/28 02:33:21;;;;;;;11.38;10.03;;;;;;;10.77;86.49;100921.63;1728323;82;21063;-74
2022/10/28 02:35:52;;;;;;;14.10;10.53;;;;;;;10.70;86.69;100917.02;1736405;82;21083;-77
2022/10/28 02:38:24;;;;;;;10.10;8.85;;;;;;;10.65;86.85;100920.61;1726674;81;21075;-76
2022/10/28 02:40:53;;;;;;;13.43;9.63;;;;;;;10.68;86.71;100920.31;1723037;82;21124;-76
2022/10/28 02:43:19;;;;;;;12.80;10.05;;;;;;;10.75;86.55;100923.59;1762243;80;21557;-79
2022/10/28 02:45:49;;;;;;;14.80;9.58;;;;;;;10.74;86.54;100923.27;1755231;80;21023;-76
2022/10/28 02:48:36;;;;;;;11.97;10.23;;;;;;;10.68;86.77;100922.50;1733709;81;21036;-75
2022/10/28 02:51:32;;;;;;;10.98;9.88;;;;;;;10.63;86.85;100926.05;1704504;83;21764;-77
2022/10/28 02:54:12;;;;;;;14.23;9.30;;;;;;;10.64;86.98;100925.06;1729646;81;21302;-78
2022/10/28 02:56:56;;;;;;;12.58;9.05;;;;;;;10.69;86.83;100929.48;1735499;80;21116;-78
2022/10/28 02:59:23;;;;;;;12.28;9.83;;;;;;;10.64;86.94;100926.39;1719990;82;21024;-77
2022/10/28 03:01:50;;;;;;;11.78;8.95;;;;;;;10.59;87.05;100919.34;1716318;82;21086;-77
2022/10/28 03:04:17;;;;;;;11.90;9.33;;;;;;;10.58;87.10;100927.78;1733886;82;21584;-76
2022/10/28 03:06:45;;;;;;;14.13;9.50;;;;;;;10.64;86.99;100922.41;1750774;80;21077;-77
2022/10/28 03:09:12;;;;;;;15.50;10.28;;;;;;;10.62;87.10;100919.05;1733035;81;21052;-74
2022/10/28 03:11:39;;;;;;;14.60;9.83;;;;;;;10.56;87.23;100916.95;1703320;83;21058;-79
2022/10/28 03:14:05;;;;;;;16.27;9.50;;;;;;;10.51;87.23;100921.37;1730910;81;21026;-76
2022/10/28 03:16:32;;;;;;;15.13;10.13;;;;;;;10.55;87.26;100916.62;1699140;83;21034;-79
2022/10/28 03:18:59;;;;;;;11.45;10.18;;;;;;;10.63;87.07;100915.42;1729816;81;21143;-76
2022/10/28 03:21:26;;;;;;;11.78;9.55;;;;;;;10.59;87.14;100920.17;1694284;83;21064;-76
2022/10/28 03:23:52;;;;;;;17.95;9.93;;;;;;;10.54;87.28;100918.41;1728852;81;21522;-78
2022/10/28 03:26:19;;;;;;;14.75;10.15;;;;;;;10.50;87.34;100922.33;1732796;81;21710;-75
2022/10/28 03:28:45;;;;;;;13.90;9.60;;;;;;;10.56;87.21;100916.95;1731366;81;21047;-75
2022/10/28 03:31:14;;;;;;;14.15;9.78;;;;;;;10.60;87.14;100927.19;1704354;83;21500;-77
2022/10/28 03:33:40;;;;;;;11.12;9.93;;;;;;;10.56;87.26;100924.42;1730675;81;21131;-77
2022/10/28 03:36:07;;;;;;;15.05;9.53;;;;;;;10.52;87.34;100924.36;1732173;81;21576;-75
2022/10/28 03:38:33;;;;;;;15.35;9.78;;;;;;;10.54;87.34;100921.08;1732843;81;21105;-77
2022/10/28 03:41:00;;;;;;;14.03;10.18;;;;;;;10.62;87.09;100919.05;1698712;83;21073;-76
2022/10/28 03:43:26;;;;;;;14.90;9.83;;;;;;;10.61;87.12;100923.53;1719912;81;21259;-75
2022/10/28 03:45:52;;;;;;;13.65;11.12;;;;;;;10.56;87.12;100923.59;1728502;81;21077;-78
2022/10/28 03:48:19;;;;;;;16.15;10.15;;;;;;;10.50;87.25;100920.17;1759514;81;21169;-76
2022/10/28 03:50:45;;;;;;;13.13;10.08;;;;;;;10.49;87.15;100919.34;1745209;81;21099;-76
2022/10/28 03:53:12;;;;;;;14.60;10.72;;;;;;;10.55;87.15;100920.61;1732443;81;21525;-78
2022/10/28 03:55:40;;;;;;;15.98;11.55;;;;;;;10.51;87.24;100912.07;1749029;81;21023;-79
2022/10/28 03:58:06;;;;;;;14.83;10.80;;;;;;;10.46;87.42;100916.12;1719188;81;21064;-79
2022/10/28 04:00:33;;;;;;;13.13;9.60;;;;;;;10.40;87.47;100916.18;1697688;84;21071;-76
2022/10/28 04:02:59;;;;;;;15.23;10.40;;;;;;;10.43;87.48;100910.11;1720342;82;21520;-76
2022/10/28 04:05:26;;;;;;;12.75;10.13;;;;;;;10.40;87.43;100909.05;1724833;81;21149;-79
2022/10/28 04:07:53;;;;;;;16.80;10.18;;;;;;;10.30;87.69;100906.88;1730557;81;21165;-78
2022/10/28 04:10:20;;;;;;;14.87;10.13;;;;;;;10.24;87.95;100908.72;1729704;81;21029;-78
2022/10/28 04:12:46;;;;;;;15.48;9.08;;;;;;;10.23;88.05;100911.02;1731217;81;21037;-77
2022/10/28 04:15:13;;;;;;;11.97;9.48;;;;;;;10.29;88.03;100909.62;1741214;81;21550;-78
2022/10/28 04:17:40;;;;;;;13.72;10.00;;;;;;;10.28;88.14;100912.78;1696907;84;21091;-78
2022/10/28 04:20:08;;;;;;;15.40;10.55;;;;;;;10.23;88.33;100915.00;1740479;81;21138;-76
2022/10/28 04:22:34;;;;;;;14.20;10.23;;;;;;;10.18;88.49;100914.09;1726140;81;20991;-76
2022/10/28 04:25:01;;;;;;;13.08;9.83;;;;;;;10.24;88.43;100915.36;1735233;81;20998;-78
2022/10/28 04:27:27;;;;;;;14.83;10.45;;;;;;;10.29;88.30;100915.77;1737797;81;21094;-80
2022/10/28 04:29:54;;;;;;;18.75;11.97;;;;;;;10.26;88.46;100912.08;1727027;81;21187;-76
2022/10/28 04:32:21;;;;;;;14.90;10.80;;;;;;;10.21;88.61;100911.64;1718053;81;21547;-77
2022/10/28 04:34:48;;;;;;;18.73;10.98;;;;;;;10.23;88.59;100916.33;1730224;81;21100;-76
2022/10/28 04:37:15;;;;;;;14.05;10.90;;;;;;;10.31;88.34;100918.33;1714071;82;21068;-76
2022/10/28 04:39:41;;;;;;;15.53;11.20;;;;;;;10.27;88.37;100915.07;1700038;83;21072;-78
2022/10/28 04:42:07;;;;;;;18.37;12.47;;;;;;;10.22;88.70;100914.17;1726846;81;21055;-78
2022/10/28 04:44:34;;;;;;;15.55;11.12;;;;;;;10.20;88.64;100911.31;1724763;81;21213;-75
2022/10/28 04:47:01;;;;;;;13.78;11.38;;;;;;;10.25;88.56;100907.73;1735666;81;21037;-77
2022/10/28 04:49:27;;;;;;;22.95;13.60;;;;;;;10.24;88.59;100914.03;1735535;81;21565;-79
2022/10/28 04:51:54;;;;;;;16.82;12.68;;;;;;;10.19;88.86;100913.09;1738315;81;21022;-78
2022/10/28 04:54:21;;;;;;;13.88;10.98;;;;;;;10.15;88.98;100911.70;1735159;81;21103;-79
2022/10/28 04:56:48;;;;;;;15.40;10.75;;;;;;;10.18;88.97;100905.30;1735065;81;21137;-78
2022/10/28 05:01:13;;;;;;;15.20;11.78;;;;;;;10.32;88.65;100907.57;1868027;74;28647;-79
2022/10/28 05:03:41;;;;;;;17.15;10.98;;;;;;;10.24;88.68;100919.34;1857092;77;20933;-78
2022/10/28 05:06:08;;;;;;;14.38;12.75;;;;;;;10.16;88.81;100913.39;1851696;77;21138;-79
2022/10/28 05:08:35;;;;;;;18.55;11.63;;;;;;;10.13;89.03;100918.13;1849680;77;21556;-79
2022/10/28 05:11:02;;;;;;;14.68;11.00;;;;;;;10.18;88.95;100916.75;1832769;77;21021;-79
2022/10/28 05:13:29;;;;;;;15.58;12.10;;;;;;;10.27;88.75;100916.40;1828116;77;20988;-80
2022/10/28 05:15:56;;;;;;;15.03;11.08;;;;;;;10.24;88.80;100918.02;1837291;75;21522;-81
2022/10/28 05:18:23;;;;;;;17.35;12.63;;;;;;;10.19;88.87;100916.25;1854654;75;21818;-82
2022/10/28 05:20:53;;;;;;;16.90;11.12;;;;;;;10.16;88.87;100924.48;1818301;77;21615;-79
2022/10/28 05:23:18;;;;;;;14.35;11.53;;;;;;;10.23;88.73;100924.30;1818067;78;21036;-78
2022/10/28 05:25:44;;;;;;;18.12;13.05;;;;;;;10.27;88.55;100931.01;1814756;77;21048;-76
2022/10/28 05:28:11;;;;;;;18.12;14.18;;;;;;;10.23;88.69;100932.27;1821335;77;21104;-77
2022/10/28 05:30:38;;;;;;;15.83;12.15;;;;;;;10.16;88.80;100929.79;1793505;77;21487;-80
2022/10/28 05:33:05;;;;;;;16.23;11.05;;;;;;;10.20;88.90;100932.05;1792218;79;21052;-80
2022/10/28 05:35:32;;;;;;;21.42;14.10;;;;;;;10.31;88.68;100936.42;1799152;77;21062;-80
2022/10/28 05:37:58;;;;;;;18.75;13.62;;;;;;;10.30;88.57;100926.80;1795396;78;21088;-79
2022/10/28 05:40:25;;;;;;;19.48;14.03;;;;;;;10.28;88.58;100935.36;1757562;79;21051;-79
2022/10/28 05:42:51;;;;;;;18.60;12.85;;;;;;;10.24;88.64;100936.61;1791151;78;21213;-80
2022/10/28 05:45:18;;;;;;;19.10;15.32;;;;;;;10.30;88.50;100926.80;1793534;78;21064;-76
2022/10/28 05:47:46;;;;;;;21.12;14.80;;;;;;;10.33;88.35;100932.31;1770153;79;21116;-77
2022/10/28 05:50:13;;;;;;;19.55;16.70;;;;;;;10.29;88.46;100940.17;1782615;79;21565;-77
2022/10/28 05:52:48;;;;;;;21.05;14.75;;;;;;;10.22;88.54;100939.39;1784038;79;21101;-79
2022/10/28 05:55:18;;;;;;;19.10;15.78;;;;;;;10.26;88.63;100938.64;1776882;79;21315;-81
2022/10/28 05:57:46;;;;;;;21.90;15.72;;;;;;;10.35;88.38;100937.86;1798133;79;20997;-79
2022/10/28 06:00:13;;;;;;;19.17;15.05;;;;;;;10.33;88.41;100944.27;1794346;79;21706;-82
2022/10/28 06:02:40;;;;;;;19.98;14.13;;;;;;;10.29;88.68;100944.98;1767259;79;21056;-80
2022/10/28 06:05:08;;;;;;;18.07;12.93;;;;;;;10.27;88.80;100944.78;1770723;79;21076;-81
2022/10/28 06:07:35;;;;;;;16.67;13.45;;;;;;;10.40;88.50;100950.22;1788230;79;21148;-80
2022/10/28 06:10:02;;;;;;;19.95;13.95;;;;;;;10.47;88.20;100950.98;1759557;79;21052;-81
2022/10/28 06:12:29;;;;;;;19.25;14.28;;;;;;;10.44;88.09;100953.44;1766339;79;21033;-80
2022/10/28 06:14:56;;;;;;;18.35;13.00;;;;;;;10.40;88.14;100952.05;1771005;80;21033;-81
2022/10/28 06:17:22;;;;;;;15.83;12.35;;;;;;;10.43;88.16;100955.27;1771998;80;21053;-81
2022/10/28 06:19:49;;;;;;;18.05;13.10;;;;;;;10.55;88.05;100959.97;1772712;79;21579;-81
2022/10/28 06:22:18;;;;;;;18.07;14.13;;;;;;;10.63;87.98;100961.44;1784247;79;20963;-81
2022/10/28 06:24:45;;;;;;;14.95;13.00;;;;;;;10.66;87.79;100960.80;1772279;80;21085;-79
2022/10/28 06:27:11;;;;;;;14.50;12.35;;;;;;;10.67;87.59;100956.69;1758438;80;21088;-78
2022/10/28 06:29:39;;;;;;;16.42;11.93;;;;;;;10.74;87.40;100962.27;1764037;79;21307;-81
2022/10/28 06:32:10;;;;;;;14.53;12.37;;;;;;;10.86;86.84;100965.16;1757746;79;21264;-81
2022/10/28 06:34:38;;;;;;;19.37;13.98;;;;;;;10.84;86.52;100964.96;1764041;79;21025;-79
2022/10/28 06:37:09;;;;;;;16.10;12.78;;;;;;;10.75;86.50;100966.13;1762617;79;21056;-79
2022/10/28 06:40:00;;;;;;;;;;;;;;;;;;;;;
2022/10/28 06:42:23;;;;;;;16.62;12.45;;;;;;;10.75;86.70;100963.47;1695417;81;21006;-81
2022/10/28 06:44:51;;;;;;;18.20;13.68;;;;;;;10.79;86.44;100963.53;1767325;79;21247;-81
2022/10/28 06:47:17;;;;;;;16.73;13.43;;;;;;;10.73;86.51;100968.08;1764548;80;21029;-81
2022/10/28 06:49:45;;;;;;;14.28;11.73;;;;;;;10.67;86.70;100964.66;1750784;80;21636;-81
2022/10/28 06:52:11;;;;;;;14.58;12.07;;;;;;;10.71;86.80;100961.23;1790750;79;21116;-79
2022/10/28 06:54:38;;;;;;;18.87;13.85;;;;;;;10.79;86.53;100961.38;1773566;79;21032;-83
2022/10/28 06:57:04;;;;;;;17.62;13.45;;;;;;;10.76;86.54;100969.14;1771353;79;21125;-82
2022/10/28 06:59:31;;;;;;;14.83;12.63;;;;;;;10.72;86.56;100960.24;1761023;79;21003;-84
2022/10/28 07:01:58;;;;;;;21.60;13.78;;;;;;;10.75;86.69;100962.14;1789121;79;20989;-82
2022/10/28 07:04:25;;;;;;;24.80;14.07;;;;;;;10.87;86.43;100966.83;1791645;79;21602;-83
2022/10/28 07:06:56;;;;;;;20.97;15.63;;;;;;;10.90;86.34;100965.72;1778224;79;21080;-82
2022/10/28 07:09:23;;;;;;;20.00;14.10;;;;;;;10.91;85.85;100974.03;1773741;79;21153;-79
2022/10/28 07:11:51;;;;;;;18.65;13.68;;;;;;;10.93;85.47;100965.42;1796571;78;21053;-81
2022/10/28 07:14:17;;;;;;;22.35;16.82;;;;;;;11.01;85.24;100969.57;1783291;79;21002;-81
2022/10/28 07:16:46;;;;;;;21.85;16.97;;;;;;;11.02;85.31;100960.59;1789797;79;21014;-82
2022/10/28 07:19:13;;;;;;;19.37;15.85;;;;;;;11.05;85.26;100958.13;1782037;78;21044;-86
2022/10/28 07:21:40;;;;;;;16.93;13.65;;;;;;;11.05;85.20;100955.02;1781625;79;21080;-81
2022/10/28 07:24:07;;;;;;;20.90;14.68;;;;;;;11.18;84.87;100952.90;1783282;79;21477;-80
2022/10/28 07:26:34;;;;;;;18.37;14.03;;;;;;;11.35;84.51;100958.45;1789280;79;21054;-81
2022/10/28 07:29:01;;;;;;;19.37;14.18;;;;;;;11.40;84.17;100953.55;1783719;79;21053;-79
2022/10/28 07:31:28;;;;;;;18.35;13.85;;;;;;;11.44;83.78;100952.77;1780176;78;21122;-78
2022/10/28 07:33:55;;;;;;;17.75;12.40;;;;;;;11.46;83.64;100953.47;1782738;79;21278;-81
2022/10/28 07:36:22;;;;;;;21.57;14.05;;;;;;;11.57;83.45;100947.48;1771562;76;21013;31
2022/10/28 07:38:50;;;;;;;19.40;15.75;;;;;;;11.76;82.81;100943.05;1798282;78;22617;-83
2022/10/28 07:41:18;;;;;;;24.90;17.00;;;;;;;11.82;82.30;100939.83;1803698;78;21079;-83
2022/10/28 07:43:46;;;;;;;18.27;14.83;;;;;;;11.84;82.00;100944.51;1801274;78;21507;-80
2022/10/28 07:46:13;;;;;;;24.70;13.40;;;;;;;11.83;81.77;100942.81;1795561;78;21113;-84
2022/10/28 07:48:41;;;;;;;19.05;12.05;;;;;;;11.85;81.47;100943.51;1775464;79;21059;-82
2022/10/28 07:51:10;;;;;;;17.20;12.25;;;;;;;12.00;81.31;100945.23;1756376;80;21012;-82
2022/10/28 07:53:39;;;;;;;17.37;13.60;;;;;;;12.11;80.86;100944.17;1757782;79;21525;-79
2022/10/28 07:56:09;;;;;;;17.42;14.75;;;;;;;12.15;80.30;100936.25;1754038;79;21028;-82
2022/10/28 07:58:36;;;;;;;21.17;13.65;;;;;;;12.14;79.91;100942.55;1788001;78;21268;-80
2022/10/28 08:01:04;;;;;;;15.80;12.82;;;;;;;12.12;79.81;100940.03;1786893;78;21956;-82
2022/10/28 08:03:32;;;;;;;15.20;12.45;;;;;;;12.16;79.69;100943.25;1784052;78;21655;-80
2022/10/28 08:06:04;;;;;;;18.73;12.93;;;;;;;12.34;79.57;100948.13;1786519;78;21006;-78
2022/10/28 08:08:31;;;;;;;26.93;16.12;;;;;;;12.46;78.86;100940.75;1788797;78;20994;-81
2022/10/28 08:10:59;;;;;;;16.30;12.75;;;;;;;12.50;79.14;100939.95;1787398;78;21100;-81
2022/10/28 08:13:25;;;;;;;21.57;16.82;;;;;;;12.56;78.71;100952.17;1755708;80;21035;-84
2022/10/28 08:15:53;;;;;;;21.80;15.60;;;;;;;12.58;78.20;100943.52;1786259;78;20977;-81
2022/10/28 08:18:21;;;;;;;19.82;14.83;;;;;;;12.57;78.32;100947.67;1788338;78;21115;-79
2022/10/28 08:20:48;;;;;;;17.35;13.95;;;;;;;12.62;78.45;100937.40;1789533;78;21139;-80
2022/10/28 08:23:15;;;;;;;20.08;15.05;;;;;;;12.73;78.33;100941.17;1795658;78;21073;-79
2022/10/28 08:25:50;;;;;;;21.62;16.12;;;;;;;12.77;77.74;100947.88;1791003;78;21084;-79
2022/10/28 08:28:17;;;;;;;17.77;14.85;;;;;;;12.77;77.54;100942.54;1791171;78;21039;-79
2022/10/28 08:30:46;;;;;;;21.87;14.58;;;;;;;12.76;76.71;100952.84;1791095;78;21079;-79
2022/10/28 08:33:12;;;;;;;19.35;14.55;;;;;;;12.72;76.52;100955.48;1764315;78;21100;-79
2022/10/28 08:35:41;;;;;;;17.95;14.10;;;;;;;12.71;76.63;100955.16;1789914;78;21604;-80
2022/10/28 08:38:08;;;;;;;17.75;13.05;;;;;;;12.84;76.35;100952.08;1790009;77;21054;-78
2022/10/28 08:41:11;;;;;;;21.30;15.43;;;;;;;12.93;76.14;100953.01;1789532;78;21083;-74
2022/10/28 08:43:59;;;;;;;16.85;13.85;;;;;;;13.00;75.93;100952.74;1795601;78;22704;-81
2022/10/28 08:47:18;;;;;;;18.25;12.07;;;;;;;13.08;74.94;100952.80;1789615;78;21005;-78
2022/10/28 08:49:51;;;;;;;17.90;14.75;;;;;;;13.13;74.94;100955.85;1773578;79;21531;-77
2022/10/28 08:52:51;;;;;;;13.18;10.95;;;;;;;13.26;74.75;100954.59;1729097;81;21135;-81
2022/10/28 08:55:32;;;;;;;14.95;11.63;;;;;;;13.43;73.46;100949.73;1787917;78;21062;-80
2022/10/28 08:58:24;;;;;;;17.27;10.72;;;;;;;13.66;72.64;100942.03;1791317;78;21077;-80
2022/10/28 09:00:56;;;;;;;15.05;12.25;;;;;;;13.89;72.05;100938.81;1787955;78;21010;-78
2022/10/28 09:03:25;;;;;;;13.03;9.25;;;;;;;14.15;70.73;100940.06;1785620;78;21206;-79
2022/10/28 09:06:03;;;;;;;12.13;8.70;;;;;;;14.46;68.68;100939.47;1791764;78;21014;-78
2022/10/28 09:08:39;;;;;;;12.93;8.43;;;;;;;14.86;67.35;100941.38;1790953;78;21030;-78
2022/10/28 09:11:23;;;;;;;10.08;9.00;;;;;;;15.32;64.83;100938.19;1789560;78;21039;-77
2022/10/28 09:14:18;;;;;;;12.82;9.33;;;;;;;15.67;64.48;100932.08;1787883;78;21058;-77
2022/10/28 09:17:16;;;;;;;10.40;9.10;;;;;;;16.02;63.72;100929.45;1784243;78;21186;-80
2022/10/28 09:19:52;;;;;;;11.00;9.68;;;;;;;16.38;62.86;100930.75;1787891;78;21057;-79
2022/10/28 09:22:43;;;;;;;11.00;8.88;;;;;;;16.65;61.08;100924.03;1786059;78;21332;-79
2022/10/28 09:25:33;;;;;;;11.60;7.87;;;;;;;16.77;60.08;100923.95;1793661;78;21058;-78
2022/10/28 09:28:11;;;;;;;8.73;7.72;;;;;;;16.86;59.86;100926.94;1795234;78;21187;-77
2022/10/28 09:30:49;;;;;;;8.15;5.92;;;;;;;17.20;59.46;100921.59;1785558;78;21104;-79
2022/10/28 09:33:41;;;;;;;8.03;6.03;;;;;;;17.44;55.48;100919.17;1787827;78;21063;-80
2022/10/28 09:36:21;;;;;;;6.50;5.47;;;;;;;17.56;54.12;100914.17;1787157;78;21070;-77
2022/10/28 09:38:50;;;;;;;8.93;5.87;;;;;;;17.73;55.23;100909.94;1788477;78;21082;-79
2022/10/28 09:41:23;;;;;;;5.87;5.28;;;;;;;18.00;54.83;100908.44;1738370;78;21103;-80
2022/10/28 09:43:54;;;;;;;7.70;6.28;;;;;;;18.30;53.09;100903.83;1788883;79;21871;-76
2022/10/28 09:46:21;;;;;;;7.53;5.58;;;;;;;18.52;53.13;100900.63;1764692;80;20999;-78
2022/10/28 09:48:50;;;;;;;5.75;4.72;;;;;;;18.72;53.31;100900.02;1762490;79;21549;-79
2022/10/28 09:51:28;;;;;;;4.75;4.25;;;;;;;18.87;52.44;100900.77;1783078;78;21085;-79
2022/10/28 09:53:59;;;;;;;4.40;4.00;;;;;;;18.92;50.79;100896.98;1787163;78;21539;-79
2022/10/28 09:56:28;;;;;;;5.50;4.20;;;;;;;18.97;50.61;100893.73;1792089;78;21134;-79
2022/10/28 09:58:58;;;;;;;4.90;4.40;;;;;;;19.08;50.74;100887.78;1792548;78;21018;-79
2022/10/28 10:01:25;;;;;;;5.30;4.80;;;;;;;19.06;49.81;100900.61;1789955;78;21003;-81
2022/10/28 10:03:52;;;;;;;7.30;5.40;;;;;;;18.82;50.07;100893.80;1767607;78;21076;-79
2022/10/28 10:06:35;;;;;;;6.90;4.67;;;;;;;18.54;51.07;100889.16;1778632;78;21096;-78
2022/10/28 10:09:03;;;;;;;5.55;4.62;;;;;;;18.27;51.20;100886.23;1777426;78;22349;-80
2022/10/28 10:11:41;;;;;;;4.92;3.98;;;;;;;18.02;51.27;100883.55;1783746;78;21554;-82
2022/10/28 10:14:14;;;;;;;3.62;3.08;;;;;;;17.78;51.23;100881.48;1787196;78;21006;-79
2022/10/28 10:16:48;;;;;;;4.00;3.60;;;;;;;17.55;51.34;100883.45;1786488;78;21634;-83
2022/10/28 10:19:14;;;;;;;;;;;;;;;17.42;50.88;100873.34;1781558;78;20991;-80
2022/10/28 10:21:49;;;;;;;5.78;4.15;;;;;;;17.54;51.05;100874.56;1784887;78;21858;-78
2022/10/28 10:24:34;;;;;;;5.00;3.90;;;;;;;17.82;50.79;100872.02;1783797;78;21096;-78
2022/10/28 10:27:12;;;;;;;5.80;3.33;;;;;;;18.23;50.70;100867.95;1781413;78;21051;-78
2022/10/28 10:29:44;;;;;;;3.08;2.77;;;;;;;18.76;49.70;100868.46;1790325;78;21069;-78
2022/10/28 10:32:30;;;;;;;5.60;3.33;;;;;;;19.07;48.32;100867.28;1785140;78;21070;-75
2022/10/28 10:35:08;;;;;;;6.40;4.47;;;;;;;19.22;47.35;100868.00;1782486;78;21401;-78
2022/10/28 10:37:34;;;;;;;7.15;4.30;;;;;;;19.04;47.61;100865.82;1779127;78;21077;-77
2022/10/28 10:40:42;;;;;;;7.58;6.10;;;;;;;18.90;48.28;100864.05;1794204;78;21364;-77
2022/10/28 10:43:23;;;;;;;5.00;4.00;;;;;;;18.94;48.88;100865.31;1789654;78;21135;-77
2022/10/28 10:46:13;;;;;;;5.92;3.92;;;;;;;18.89;49.30;100853.46;1751384;79;21375;-78
2022/10/28 10:48:41;;;;;;;6.30;4.60;;;;;;;18.95;48.64;100862.95;1762157;79;22176;-76
2022/10/28 10:51:17;;;;;;;4.35;3.90;;;;;;;19.13;48.43;100860.28;1731248;81;21134;-78
2022/10/28 10:53:49;;;;;;;4.67;3.65;;;;;;;19.11;48.51;100858.30;1725375;81;21718;-75
2022/10/28 10:56:30;;;;;;;5.78;3.52;;;;;;;19.18;48.15;100867.23;1726237;81;21141;-77
2022/10/28 10:59:00;;;;;;;4.20;3.45;;;;;;;19.23;47.75;100858.88;1804060;78;21021;-80
2022/10/28 11:01:30;;;;;;;3.75;3.40;;;;;;;19.29;47.31;100860.47;1787262;78;21321;-81
2022/10/28 11:04:05;;;;;;;5.55;3.25;;;;;;;19.48;47.67;100848.14;1771888;78;21040;-80
2022/10/28 11:06:38;;;;;;;3.42;3.12;;;;;;;19.83;47.18;100844.37;1794934;78;20975;-82
2022/10/28 11:09:37;;;;;;;4.55;3.10;;;;;;;20.28;46.35;100851.13;1800462;78;21071;-79
2022/10/28 11:12:17;;;;;;;4.65;3.58;;;;;;;20.74;46.29;100850.36;1751397;79;21513;-81
2022/10/28 11:14:59;;;;;;;4.42;3.50;;;;;;;21.08;44.40;100844.42;1756802;79;21023;-80
2022/10/28 11:17:29;;;;;;;4.37;3.10;;;;;;;21.11;45.24;100846.69;1753207;79;21098;-80
2022/10/28 11:19:58;;;;;;;5.45;3.60;;;;;;;21.41;44.08;100846.50;1758320;78;21014;-80
2022/10/28 11:22:34;;;;;;;3.55;2.87;;;;;;;21.72;43.68;100838.20;1760022;79;21044;-79
2022/10/28 11:25:19;;;;;;;4.45;3.30;;;;;;;21.93;42.38;100839.77;1754626;79;21059;-81
2022/10/28 11:28:33;;;;;;;3.60;2.90;;;;;;;21.98;42.16;100838.61;1752939;79;21165;-79
2022/10/28 11:31:09;;;;;;;;;;;;;;;22.12;42.20;100831.77;1763185;79;21115;-77
2022/10/28 11:34:10;;;;;;;3.98;3.37;;;;;;;22.30;42.23;100827.81;1789441;78;20194;-79
2022/10/28 11:36:45;;;;;;;3.62;2.50;;;;;;;22.65;41.40;100830.56;1664627;84;21095;-78
2022/10/28 11:39:25;;;;;;;3.00;2.70;;;;;;;22.88;41.04;100830.77;1688217;83;21076;-79
2022/10/28 11:42:14;;;;;;;4.40;3.10;;;;;;;22.90;40.66;100816.47;1733126;79;21776;-77
2022/10/28 11:44:57;;;;;;;4.75;3.33;;;;;;;23.02;41.43;100813.84;1793319;78;21116;-85
2022/10/28 11:47:39;;;;;;;3.67;3.15;;;;;;;23.57;40.29;100815.77;1796623;79;21023;-86